Time;durP1;ratioP1;P1;durP2;ratioP2;P2;SDS_P1;SDS_P2;PMS_P1;PMS_P2;Temp;Humidity;BMP_temperature;BMP_pressure;BME280_temperature;BME280_humidity;BME280_pressure;Samples;Min_cycle;Max_cycle;Signal;HPM_P1;HPM_P2
2022/06/11 00:01:57;;;;;;;5.55;2.50;;;20.20;99.90;;;;;;5090389;28;20024;-63
2022/06/11 00:04:26;;;;;;;6.45;2.28;;;;;;;;;;5086795;28;20503;-63
2022/06/11 00:06:56;;;;;;;6.38;2.75;;;19.80;99.90;;;;;;5080045;28;20016;-63
2022/06/11 00:09:23;;;;;;;7.78;2.45;;;20.10;99.90;;;;;;5087566;28;20460;-63
2022/06/11 00:11:51;;;;;;;6.78;2.75;;;20.10;99.90;;;;;;5084716;28;20120;-64
2022/06/11 00:14:19;;;;;;;7.72;2.15;;;20.10;99.90;;;;;;5091030;28;20065;-64
2022/06/11 00:16:45;;;;;;;7.70;2.45;;;20.10;99.90;;;;;;5084855;28;20024;-64
2022/06/11 00:19:13;;;;;;;9.23;2.70;;;20.10;99.90;;;;;;5087913;28;20397;-63
2022/06/11 00:21:42;;;;;;;5.72;2.38;;;20.00;99.90;;;;;;5084066;28;20020;-64
2022/06/11 00:24:09;;;;;;;8.05;2.50;;;20.10;99.90;;;;;;5084985;28;20665;-64
2022/06/11 00:26:35;;;;;;;7.35;2.50;;;20.00;99.90;;;;;;5084227;28;20036;-63
2022/06/11 00:29:01;;;;;;;8.82;2.40;;;20.00;99.90;;;;;;5082203;28;20027;-64
2022/06/11 00:31:27;;;;;;;9.77;2.67;;;19.90;99.90;;;;;;5084897;28;20171;-63
2022/06/11 00:33:53;;;;;;;7.63;2.38;;;19.90;99.90;;;;;;5086141;28;20110;-64
2022/06/11 00:36:19;;;;;;;7.55;2.70;;;20.00;99.90;;;;;;5082553;28;20530;-64
2022/06/11 00:38:46;;;;;;;8.32;2.60;;;20.00;99.90;;;;;;5089743;28;20101;-64
2022/06/11 00:41:12;;;;;;;6.57;2.75;;;20.00;99.90;;;;;;5087787;28;20016;-63
2022/06/11 00:43:39;;;;;;;7.05;2.22;;;20.00;99.90;;;;;;5087258;28;20081;-63
2022/06/11 00:46:42;;;;;;;6.88;2.67;;;19.90;99.90;;;;;;5088563;28;20536;-63
2022/06/11 00:49:35;;;;;;;7.35;2.78;;;19.90;99.90;;;;;;5081758;28;20017;-64
2022/06/11 00:52:24;;;;;;;11.65;2.90;;;19.80;99.90;;;;;;5082104;28;20016;-63
2022/06/11 00:55:04;;;;;;;7.90;2.53;;;19.80;99.90;;;;;;5089598;28;20519;-64
2022/06/11 00:57:34;;;;;;;4.07;2.30;;;19.60;99.90;;;;;;5089831;28;20043;-63
2022/06/11 01:00:12;;;;;;;5.88;2.47;;;19.50;99.90;;;;;;5088953;28;20024;-64
2022/06/11 01:02:38;;;;;;;6.50;2.50;;;19.30;99.90;;;;;;5081927;28;20115;-63
2022/06/11 01:05:05;;;;;;;4.93;2.40;;;19.30;99.90;;;;;;5089826;28;20080;-64
2022/06/11 01:07:52;;;;;;;5.90;2.38;;;19.10;99.90;;;;;;5082728;28;20098;-63
2022/06/11 01:10:38;;;;;;;7.00;2.90;;;18.90;99.90;;;;;;5088946;28;20020;-63
2022/06/11 01:13:14;;;;;;;5.10;2.50;;;18.80;99.90;;;;;;5080121;28;20020;-62
2022/06/11 01:15:47;;;;;;;8.40;3.03;;;18.70;99.90;;;;;;5088080;28;20052;-63
2022/06/11 01:18:32;;;;;;;6.97;2.70;;;18.60;99.90;;;;;;5088360;28;20499;-63
2022/06/11 01:21:12;;;;;;;8.60;2.70;;;18.60;99.90;;;;;;5084834;28;20153;-63
2022/06/11 01:23:52;;;;;;;7.95;2.70;;;18.70;99.90;;;;;;5084566;28;20522;-63
2022/06/11 01:26:43;;;;;;;6.00;2.80;;;18.60;99.90;;;;;;5085881;28;20016;-63
2022/06/11 01:29:11;;;;;;;6.07;2.38;;;18.60;99.90;;;;;;5086028;28;20089;-63
2022/06/11 01:31:39;;;;;;;6.70;2.88;;;18.50;99.90;;;;;;5092688;28;20679;-63
2022/06/11 01:34:56;;;;;;;7.47;2.85;;;18.50;99.90;;;;;;5086836;28;20447;-63
2022/06/11 01:37:30;;;;;;;8.90;2.92;;;18.40;99.90;;;;;;5061161;28;20176;-63
2022/06/11 01:40:01;;;;;;;10.25;3.10;;;18.50;99.90;;;;;;5087492;28;20262;-63
2022/06/11 01:42:39;;;;;;;5.18;2.90;;;18.40;99.90;;;;;;5086975;28;20161;-63
2022/06/11 01:45:15;;;;;;;6.68;2.85;;;18.50;99.90;;;;;;5083264;28;20568;-63
2022/06/11 01:47:42;;;;;;;4.85;2.78;;;18.40;99.90;;;;;;5086247;28;20030;-63
2022/06/11 01:50:10;;;;;;;12.70;3.25;;;18.60;99.90;;;;;;5084631;28;20035;-63
2022/06/11 01:53:05;;;;;;;5.78;3.08;;;18.50;99.90;;;;;;5086970;28;20484;-63
2022/06/11 01:55:39;;;;;;;8.48;3.10;;;18.40;99.90;;;;;;5084435;28;20368;-63
2022/06/11 01:58:13;;;;;;;7.07;3.10;;;18.30;99.90;;;;;;5083291;28;20020;-63
2022/06/11 02:00:45;;;;;;;10.32;3.17;;;18.30;99.90;;;;;;5087792;28;20016;-63
2022/06/11 02:03:16;;;;;;;13.70;3.50;;;18.40;99.90;;;;;;5084678;28;20497;-63
2022/06/11 02:06:15;;;;;;;10.70;3.70;;;18.20;99.90;;;;;;5082334;28;20099;-63
2022/06/11 02:09:09;;;;;;;8.60;3.40;;;17.50;99.90;;;;;;5084154;28;20020;-63
2022/06/11 02:12:00;;;;;;;6.75;3.63;;;18.00;99.90;;;;;;5086980;28;20024;-63
2022/06/11 02:14:44;;;;;;;7.70;3.67;;;17.90;99.90;;;;;;5083556;28;20069;-63
2022/06/11 02:17:28;;;;;;;7.22;3.25;;;17.80;99.90;;;;;;5088046;28;20378;-63
2022/06/11 02:20:14;;;;;;;;;;;17.80;99.90;;;;;;5080456;28;20024;-63
2022/06/11 02:23:12;;;;;;;9.32;3.65;;;17.70;99.90;;;;;;5082461;28;19908;-63
2022/06/11 02:25:45;;;;;;;6.88;3.28;;;17.70;99.90;;;;;;5072017;28;20490;-63
2022/06/11 02:28:15;;;;;;;7.07;3.45;;;17.70;99.90;;;;;;5083634;28;20024;-63
2022/06/11 02:30:45;;;;;;;6.32;3.50;;;17.60;99.90;;;;;;5082568;28;20044;-63
2022/06/11 02:33:13;;;;;;;8.75;3.80;;;17.60;99.90;;;;;;5082422;28;20020;-63
2022/06/11 02:35:52;;;;;;;5.90;3.03;;;17.50;99.90;;;;;;5085764;28;20031;-63
2022/06/11 02:38:23;;;;;;;6.53;3.40;;;17.60;99.90;;;;;;5083529;28;20364;-63
2022/06/11 02:40:55;;;;;;;8.80;3.70;;;17.60;99.90;;;;;;5083292;28;20024;-62
2022/06/11 02:43:21;;;;;;;5.53;3.28;;;17.40;99.90;;;;;;5085426;28;20089;-63
2022/06/11 02:45:47;;;;;;;9.27;3.50;;;17.40;99.90;;;;;;5082149;28;20047;-63
2022/06/11 02:48:14;;;;;;;9.95;3.25;;;17.50;99.90;;;;;;5082686;28;20439;-63
2022/06/11 02:50:42;;;;;;;7.82;3.28;;;17.40;99.90;;;;;;5082852;28;20085;-63
2022/06/11 02:53:08;;;;;;;7.18;3.15;;;17.40;99.90;;;;;;5079805;28;20419;-63
2022/06/11 02:55:36;;;;;;;8.75;3.30;;;17.40;99.90;;;;;;5083139;28;20016;-63
2022/06/11 02:58:02;;;;;;;9.43;3.35;;;17.40;99.90;;;;;;5085308;28;20020;-62
2022/06/11 03:00:34;;;;;;;9.93;3.45;;;17.30;99.90;;;;;;5085571;28;20027;-62
2022/06/11 03:03:00;;;;;;;5.72;3.65;;;17.30;99.90;;;;;;5081151;28;20020;-63
2022/06/11 03:05:28;;;;;;;6.22;3.28;;;17.10;99.90;;;;;;5082821;28;20438;-63
2022/06/11 03:07:55;;;;;;;8.00;3.20;;;17.10;99.90;;;;;;5081228;28;20020;-62
2022/06/11 03:10:23;;;;;;;8.48;3.50;;;17.10;99.90;;;;;;5088697;28;20064;-63
2022/06/11 03:12:50;;;;;;;7.15;3.30;;;16.90;99.90;;;;;;5090449;28;20024;-63
2022/06/11 03:15:17;;;;;;;6.32;3.42;;;17.00;99.90;;;;;;5079280;28;20027;-62
2022/06/11 03:17:44;;;;;;;5.85;2.95;;;17.00;99.90;;;;;;5092587;28;20028;-63
2022/06/11 03:20:12;;;;;;;6.25;3.35;;;17.10;99.90;;;;;;5084244;28;20119;-63
2022/06/11 03:22:38;;;;;;;11.32;3.70;;;17.10;99.90;;;;;;5087290;28;20506;-63
2022/06/11 03:25:04;;;;;;;5.88;3.33;;;17.00;99.90;;;;;;5086555;28;20058;-63
2022/06/11 03:27:30;;;;;;;9.55;3.88;;;16.90;99.90;;;;;;5087879;28;20024;-63
2022/06/11 03:29:55;;;;;;;7.68;3.58;;;16.90;99.90;;;;;;5088376;28;20566;-62
2022/06/11 03:32:21;;;;;;;8.70;3.65;;;17.00;99.90;;;;;;5089923;28;20040;-63
2022/06/11 03:34:47;;;;;;;8.40;3.65;;;16.80;99.90;;;;;;5086982;28;20024;-63
2022/06/11 03:37:14;;;;;;;8.57;3.90;;;16.80;99.90;;;;;;5083760;28;20033;-63
2022/06/11 03:39:40;;;;;;;5.18;3.50;;;16.80;99.90;;;;;;5086770;28;20035;-63
2022/06/11 03:42:07;;;;;;;9.43;3.85;;;16.90;99.90;;;;;;5083475;28;20082;-62
2022/06/11 03:44:32;;;;;;;10.00;3.65;;;16.80;99.90;;;;;;5087485;28;20021;-63
2022/06/11 03:46:58;;;;;;;6.78;3.80;;;16.70;99.90;;;;;;5086213;28;20024;-63
2022/06/11 03:49:25;;;;;;;8.35;3.60;;;16.60;99.90;;;;;;5085945;28;20352;-63
2022/06/11 03:51:50;;;;;;;8.70;3.50;;;16.70;99.90;;;;;;5085640;28;20023;-62
2022/06/11 03:54:17;;;;;;;5.80;3.72;;;16.70;99.90;;;;;;5086304;28;20020;-63
2022/06/11 03:56:45;;;;;;;7.30;3.70;;;16.70;99.90;;;;;;5087637;28;20367;-62
2022/06/11 03:59:12;;;;;;;6.40;3.95;;;16.80;99.90;;;;;;5083012;28;20024;-63
2022/06/11 04:01:40;;;;;;;6.50;3.85;;;16.70;99.90;;;;;;5087740;28;20484;-62
2022/06/11 04:04:09;;;;;;;7.32;3.60;;;16.70;99.90;;;;;;5087155;28;20073;-63
2022/06/11 04:06:38;;;;;;;6.93;4.15;;;16.50;99.90;;;;;;5083466;28;20020;-63
2022/06/11 04:09:07;;;;;;;8.65;3.83;;;16.70;99.90;;;;;;5085980;28;20494;-62
2022/06/11 04:11:32;;;;;;;8.20;3.55;;;16.60;99.90;;;;;;5086780;28;20028;-62
2022/06/11 04:13:58;;;;;;;6.72;3.55;;;16.70;99.90;;;;;;5084444;28;20030;-63
2022/06/11 04:16:32;;;;;;;5.13;3.60;;;16.70;99.90;;;;;;5087585;28;20028;-63
2022/06/11 04:19:00;;;;;;;7.47;3.83;;;16.60;99.90;;;;;;5090400;28;20028;-62
2022/06/11 04:21:28;;;;;;;10.15;3.53;;;16.70;99.90;;;;;;5082470;28;20012;-62
2022/06/11 04:23:57;;;;;;;11.27;4.05;;;16.70;99.90;;;;;;5085364;28;20035;-62
2022/06/11 04:26:37;;;;;;;7.03;4.43;;;16.80;99.90;;;;;;5084245;28;20020;-62
2022/06/11 04:29:05;;;;;;;9.63;4.68;;;16.80;99.90;;;;;;5083594;28;20161;-63
2022/06/11 04:31:32;;;;;;;6.82;3.78;;;16.80;99.90;;;;;;5085946;28;20043;-63
2022/06/11 04:33:58;;;;;;;6.38;4.22;;;16.90;99.90;;;;;;5084435;28;20095;-63
2022/06/11 04:36:27;;;;;;;8.50;4.45;;;17.10;99.90;;;;;;5082288;28;20514;-63
2022/06/11 04:38:53;;;;;;;8.07;4.50;;;17.30;99.90;;;;;;5090553;28;20051;-63
2022/06/11 04:41:20;;;;;;;7.80;4.45;;;17.50;99.90;;;;;;5084446;28;20021;-63
2022/06/11 04:43:46;;;;;;;8.25;4.60;;;17.90;99.90;;;;;;5087433;28;20032;-63
2022/06/11 04:46:12;;;;;;;11.68;5.18;;;17.90;99.90;;;;;;5082038;28;20066;-63
2022/06/11 04:48:38;;;;;;;11.20;5.40;;;18.20;99.90;;;;;;5088484;28;20460;-63
2022/06/11 04:51:04;;;;;;;14.20;4.78;;;18.30;99.90;;;;;;5085589;28;20038;-63
2022/06/11 04:53:30;;;;;;;11.15;5.28;;;18.60;99.90;;;;;;5078034;28;20029;-63
2022/06/11 04:55:56;;;;;;;10.45;5.18;;;18.70;99.90;;;;;;5089931;28;20020;-63
2022/06/11 04:58:22;;;;;;;10.55;5.63;;;18.70;99.90;;;;;;5084195;28;20020;-63
2022/06/11 05:00:47;;;;;;;13.48;5.38;;;18.70;99.90;;;;;;5085639;28;20467;-63
2022/06/11 05:03:14;;;;;;;11.63;5.40;;;18.80;99.90;;;;;;5082969;28;20027;-63
2022/06/11 05:05:40;;;;;;;11.90;4.90;;;;;;;;;;5084960;28;20016;-63
2022/06/11 05:08:06;;;;;;;11.10;5.10;;;18.70;99.90;;;;;;5080496;28;20476;-63
2022/06/11 05:10:34;;;;;;;10.82;4.88;;;18.70;99.90;;;;;;5084994;28;20113;-63
2022/06/11 05:13:00;;;;;;;11.23;4.95;;;18.80;99.90;;;;;;5083942;28;20020;-63
2022/06/11 05:15:26;;;;;;;12.43;5.00;;;18.80;99.90;;;;;;5080589;28;20035;-63
2022/06/11 05:17:51;;;;;;;10.77;5.10;;;18.90;99.90;;;;;;5081129;28;20387;-64
2022/06/11 05:20:18;;;;;;;9.48;5.15;;;18.80;99.90;;;;;;5085765;28;20044;-63
2022/06/11 05:22:45;;;;;;;11.50;4.90;;;;;;;;;;5084644;28;20016;-63
2022/06/11 05:25:13;;;;;;;11.27;5.47;;;;;;;;;;5081109;28;20694;-63
2022/06/11 05:27:42;;;;;;;10.13;4.78;;;;;;;;;;5083367;28;20568;-63
2022/06/11 05:30:11;;;;;;;8.80;4.80;;;;;;;;;;5083633;28;20041;-63
2022/06/11 05:32:41;;;;;;;10.82;5.65;;;;;;;;;;5083489;28;20023;-63
2022/06/11 05:35:09;;;;;;;10.48;4.75;;;;;;;;;;5076318;28;20024;-63
2022/06/11 05:37:36;;;;;;;9.43;4.97;;;;;;;;;;5082488;28;20049;-63
2022/06/11 05:40:05;;;;;;;8.25;5.18;;;;;;;;;;5084394;28;20056;-63
2022/06/11 05:42:31;;;;;;;9.10;5.18;;;18.60;99.90;;;;;;5082686;28;20103;-63
2022/06/11 05:44:57;;;;;;;11.43;5.45;;;;;;;;;;5083864;28;20127;-63
2022/06/11 05:47:26;;;;;;;10.50;5.40;;;18.70;99.90;;;;;;5085347;28;20105;-64
2022/06/11 05:49:57;;;;;;;8.05;4.90;;;;;;;;;;5084661;28;20028;-63
2022/06/11 05:52:26;;;;;;;7.90;4.25;;;;;;;;;;5082777;28;20062;-63
2022/06/11 05:54:54;;;;;;;8.27;4.70;;;;;;;;;;5085125;28;20462;-63
2022/06/11 05:57:23;;;;;;;16.17;5.63;;;19.10;99.90;;;;;;5078781;28;20113;-64
2022/06/11 05:59:52;;;;;;;10.25;5.28;;;;;;;;;;5084833;28;20368;-63
2022/06/11 06:02:20;;;;;;;10.13;5.15;;;19.00;99.90;;;;;;5076196;28;20013;-64
2022/06/11 06:04:48;;;;;;;10.38;5.25;;;;;;;;;;5085281;28;20089;-64
2022/06/11 06:07:15;;;;;;;10.00;5.07;;;18.90;99.90;;;;;;5086522;28;20023;-63
2022/06/11 06:09:41;;;;;;;7.40;4.85;;;19.00;99.90;;;;;;5083502;28;20024;-63
2022/06/11 06:12:09;;;;;;;10.98;4.97;;;19.10;99.90;;;;;;5088434;28;20028;-64
2022/06/11 06:14:37;;;;;;;11.10;4.80;;;;;;;;;;5085823;28;20024;-64
2022/06/11 06:17:04;;;;;;;8.82;4.35;;;;;;;;;;5087596;28;20016;-64
2022/06/11 06:19:32;;;;;;;10.13;4.95;;;19.30;99.90;;;;;;5083196;28;20028;-64
2022/06/11 06:21:58;;;;;;;10.63;5.18;;;;;;;;;;5078070;28;20507;-64
2022/06/11 06:24:24;;;;;;;10.35;4.80;;;19.20;99.90;;;;;;5084204;28;20112;-64
2022/06/11 06:26:50;;;;;;;10.90;4.38;;;;;;;;;;5080666;28;20055;-64
2022/06/11 06:29:16;;;;;;;9.43;4.28;;;19.30;99.90;;;;;;5080522;28;20452;-64
2022/06/11 06:31:41;;;;;;;10.68;4.50;;;19.10;99.90;;;;;;5089522;28;20035;-64
2022/06/11 06:34:07;;;;;;;13.82;4.82;;;19.40;99.90;;;;;;5082257;28;20059;-64
2022/06/11 06:36:33;;;;;;;9.15;4.47;;;19.50;99.90;;;;;;5073274;28;20101;-64
2022/06/11 06:39:00;;;;;;;7.97;4.47;;;;;;;;;;5081742;28;20026;-64
2022/06/11 06:41:28;;;;;;;6.30;3.67;;;;;;;;;;5081577;28;20024;-64
2022/06/11 06:43:56;;;;;;;9.05;4.60;;;;;;;;;;5081555;28;20020;-64
2022/06/11 06:46:23;;;;;;;11.35;4.43;;;;;;;;;;5082336;28;20692;-63
2022/06/11 06:48:51;;;;;;;7.50;4.03;;;;;;;;;;5094690;28;20028;-64
2022/06/11 06:51:19;;;;;;;11.75;4.40;;;;;;;;;;5082995;28;20035;-64
2022/06/11 06:53:45;;;;;;;8.45;4.28;;;;;;;;;;5088807;28;20024;-64
2022/06/11 06:56:12;;;;;;;10.00;4.35;;;;;;;;;;5082572;28;20039;-64
2022/06/11 06:58:39;;;;;;;8.93;3.00;;;;;;;;;;5085608;28;20099;-65
2022/06/11 07:01:07;;;;;;;7.18;3.40;;;;;;;;;;5081704;28;20021;-64
2022/06/11 07:03:35;;;;;;;11.60;3.55;;;19.20;99.90;;;;;;5076732;28;20101;-64
2022/06/11 07:06:03;;;;;;;8.55;3.67;;;19.50;99.90;;;;;;5080704;28;20028;-65
2022/06/11 07:08:29;;;;;;;8.20;3.70;;;;;;;;;;5080182;28;20077;-64
2022/06/11 07:10:56;;;;;;;9.20;3.65;;;;;;;;;;5083089;28;20036;-65
2022/06/11 07:13:23;;;;;;;9.93;3.70;;;;;;;;;;5074421;28;20081;-64
2022/06/11 07:15:53;;;;;;;6.78;3.28;;;;;;;;;;5081878;28;20356;-66
2022/06/11 07:18:27;;;;;;;8.82;3.25;;;19.50;99.90;;;;;;5082652;28;20024;-65
2022/06/11 07:20:59;;;;;;;8.65;2.95;;;19.70;99.90;;;;;;5084315;28;20015;-65
2022/06/11 07:23:29;;;;;;;9.75;3.72;;;;;;;;;;5079495;28;20164;-64
2022/06/11 07:26:00;;;;;;;9.65;3.33;;;;;;;;;;5084452;28;20024;-66
2022/06/11 07:28:29;;;;;;;7.85;3.30;;;;;;;;;;5084016;28;20466;-64
2022/06/11 07:30:57;;;;;;;7.65;3.33;;;;;;;;;;5083948;28;20039;-65
2022/06/11 07:33:24;;;;;;;6.90;3.80;;;;;;;;;;5084022;28;20423;-65
2022/06/11 07:35:52;;;;;;;7.97;3.38;;;20.50;99.90;;;;;;5081885;28;20442;-65
2022/06/11 07:38:19;;;;;;;9.50;3.80;;;20.60;99.90;;;;;;5083942;28;20020;-65
2022/06/11 07:40:46;;;;;;;7.20;3.80;;;21.10;99.90;;;;;;5087760;28;20027;-65
2022/06/11 07:43:12;;;;;;;6.13;3.60;;;20.80;99.90;;;;;;5081722;28;20016;-65
2022/06/11 07:45:41;;;;;;;6.05;3.25;;;20.90;99.90;;;;;;5083173;28;20077;-65
2022/06/11 07:48:08;;;;;;;7.35;3.65;;;;;;;;;;5088040;28;20055;-65
2022/06/11 07:50:38;;;;;;;9.40;3.33;;;20.90;99.90;;;;;;5083185;28;20070;-65
2022/06/11 07:53:06;;;;;;;6.88;3.10;;;;;;;;;;5079215;28;20028;-65
2022/06/11 07:55:32;;;;;;;6.80;3.22;;;20.90;99.90;;;;;;5079413;28;20043;-65
2022/06/11 07:57:59;;;;;;;10.38;3.40;;;21.00;99.90;;;;;;5078152;28;20036;-66
2022/06/11 08:00:28;;;;;;;11.35;4.03;;;20.90;99.90;;;;;;5079970;28;20028;-65
2022/06/11 08:02:54;;;;;;;10.05;3.67;;;20.50;99.90;;;;;;5089290;28;20023;-66
2022/06/11 08:05:20;;;;;;;12.00;3.70;;;20.20;99.90;;;;;;5085416;28;20090;-65
2022/06/11 08:07:46;;;;;;;9.75;4.13;;;20.30;99.90;;;;;;5083411;28;20040;-66
2022/06/11 08:10:13;;;;;;;6.68;3.85;;;20.20;99.90;;;;;;5080082;28;20019;-65
2022/06/11 08:12:40;;;;;;;6.22;3.20;;;20.50;99.90;;;;;;5087893;28;20825;-66
2022/06/11 08:15:06;;;;;;;8.32;3.60;;;20.80;99.90;;;;;;5084692;28;20332;-66
2022/06/11 08:17:32;;;;;;;10.00;4.30;;;20.90;99.90;;;;;;5083537;28;20560;-63
2022/06/11 08:19:59;;;;;;;7.75;3.97;;;21.10;99.90;;;;;;5083464;28;20085;-66
2022/06/11 08:22:24;;;;;;;7.32;3.65;;;21.00;99.90;;;;;;5076308;28;20032;-66
2022/06/11 08:24:50;;;;;;;10.27;4.38;;;20.90;99.90;;;;;;5072210;28;20112;-65
2022/06/11 08:27:16;;;;;;;8.77;3.33;;;21.20;99.90;;;;;;5086681;28;20034;-66
2022/06/11 08:29:42;;;;;;;11.95;4.18;;;21.50;99.90;;;;;;5088175;28;20923;-66
2022/06/11 08:32:10;;;;;;;7.80;3.40;;;21.80;99.90;;;;;;5074872;28;20494;-66
2022/06/11 08:34:37;;;;;;;9.02;3.92;;;21.90;99.90;;;;;;5088509;28;20016;-66
2022/06/11 08:37:03;;;;;;;8.40;3.60;;;22.20;99.90;;;;;;5083683;28;20028;-65
2022/06/11 08:39:28;;;;;;;8.00;4.05;;;22.10;99.90;;;;;;5087867;28;20035;-65
2022/06/11 08:41:59;;;;;;;10.02;4.15;;;21.50;99.90;;;;;;5088650;28;20051;-65
2022/06/11 08:44:27;;;;;;;7.45;3.85;;;21.20;99.90;;;;;;5093708;28;20152;-65
2022/06/11 08:46:57;;;;;;;8.23;3.88;;;;;;;;;;5085372;28;20036;-65
2022/06/11 08:49:42;;;;;;;8.68;3.50;;;21.20;99.90;;;;;;5081530;28;20032;-64
2022/06/11 08:52:22;;;;;;;8.57;3.22;;;21.50;99.90;;;;;;5084766;28;20028;-64
2022/06/11 08:54:48;;;;;;;10.05;3.55;;;21.00;99.90;;;;;;5084002;28;20256;-64
2022/06/11 08:57:46;;;;;;;7.88;3.30;;;21.50;99.90;;;;;;5082287;28;20459;-66
2022/06/11 09:00:42;;;;;;;8.55;3.45;;;21.50;99.90;;;;;;5082943;28;20031;-66
2022/06/11 09:03:17;;;;;;;9.75;3.78;;;21.70;99.90;;;;;;5078810;28;20597;-66
2022/06/11 09:06:21;;;;;;;7.75;3.70;;;21.60;99.90;;;;;;5087741;28;20494;-65
2022/06/11 09:09:05;;;;;;;7.15;3.45;;;22.00;99.90;;;;;;5085321;28;20020;-67
2022/06/11 09:11:54;;;;;;;6.95;3.63;;;21.90;99.90;;;;;;5085779;28;20051;-66
2022/06/11 09:14:38;;;;;;;11.10;4.43;;;22.10;99.90;;;;;;5056677;28;20028;-64
2022/06/11 09:17:27;;;;;;;7.57;3.83;;;21.90;99.90;;;;;;5100225;27;20117;-65
2022/06/11 09:20:17;;;;;;;9.80;3.90;;;21.90;99.90;;;;;;5073556;28;20077;-64
2022/06/11 09:23:05;;;;;;;10.52;4.25;;;21.90;99.90;;;;;;5086587;28;20095;-64
2022/06/11 09:25:53;;;;;;;6.47;3.45;;;21.90;99.90;;;;;;5082058;28;20016;-64
2022/06/11 09:28:25;;;;;;;9.10;3.70;;;22.00;99.90;;;;;;5087565;28;20052;-65
2022/06/11 09:31:01;;;;;;;9.67;3.67;;;22.20;99.90;;;;;;5089155;28;20038;-65
2022/06/11 09:33:37;;;;;;;8.85;4.20;;;22.00;99.90;;;;;;5082666;28;20328;-65
2022/06/11 09:36:05;;;;;;;10.32;3.88;;;21.80;99.90;;;;;;5089360;28;20482;-66
2022/06/11 09:38:48;;;;;;;5.63;3.70;;;22.00;99.90;;;;;;5081237;28;20031;-64
2022/06/11 09:41:38;;;;;;;10.48;3.80;;;22.30;99.90;;;;;;5081442;28;20054;-65
2022/06/11 09:44:26;;;;;;;8.00;3.20;;;22.40;99.90;;;;;;5082385;28;20024;-65
2022/06/11 09:46:55;;;;;;;8.45;3.33;;;22.50;99.90;;;;;;5085307;28;20450;-65
2022/06/11 09:49:42;;;;;;;8.88;3.28;;;22.50;99.90;;;;;;5086790;28;20114;-65
2022/06/11 09:52:31;;;;;;;10.32;3.40;;;22.80;99.90;;;;;;5088497;28;20024;-65
2022/06/11 09:55:21;;;;;;;7.50;3.38;;;22.60;99.90;;;;;;5081354;28;20021;-65
2022/06/11 09:58:33;;;;;;;7.93;3.17;;;22.50;99.90;;;;;;5082854;28;20742;-63
2022/06/11 10:01:10;;;;;;;7.15;3.20;;;22.50;99.90;;;;;;5077022;28;20081;-65
2022/06/11 10:03:48;;;;;;;7.47;2.95;;;22.70;99.90;;;;;;5086262;28;20039;-65
2022/06/11 10:06:18;;;;;;;10.38;3.90;;;22.70;99.90;;;;;;5081713;28;20020;-64
2022/06/11 10:09:08;;;;;;;11.65;2.90;;;22.90;99.90;;;;;;5086120;28;20016;-65
2022/06/11 10:11:48;;;;;;;7.43;3.60;;;23.00;99.90;;;;;;5081856;28;20032;-65
2022/06/11 10:14:29;;;;;;;7.07;2.80;;;23.00;99.90;;;;;;5084945;28;20604;-64
2022/06/11 10:17:16;;;;;;;8.20;2.80;;;23.10;99.90;;;;;;5088899;28;20103;-65
2022/06/11 10:20:01;;;;;;;10.38;3.00;;;22.90;99.90;;;;;;5077782;28;20483;-65
2022/06/11 10:22:35;;;;;;;9.73;2.55;;;22.70;99.90;;;;;;5080358;28;20020;-63
2022/06/11 10:25:41;;;;;;;5.82;2.25;;;22.70;99.90;;;;;;5081024;28;20494;-64
2022/06/11 10:28:18;;;;;;;6.70;2.33;;;22.80;99.90;;;;;;5086127;28;20040;-65
2022/06/11 10:31:14;;;;;;;8.95;2.38;;;22.70;99.90;;;;;;5081513;28;20035;-65
2022/06/11 10:33:59;;;;;;;6.70;2.47;;;22.70;99.90;;;;;;5081934;28;20040;-65
2022/06/11 10:36:36;;;;;;;9.48;2.70;;;22.80;99.90;;;;;;5082336;28;20032;-65
2022/06/11 10:39:09;;;;;;;13.18;3.88;;;22.90;99.90;;;;;;5083773;28;20024;-65
2022/06/11 10:42:16;;;;;;;9.25;2.92;;;22.80;99.90;;;;;;5084301;28;20047;-64
2022/06/11 10:44:46;;;;;;;5.93;2.88;;;22.90;99.90;;;;;;5050126;28;20028;-66
2022/06/11 10:47:18;;;;;;;8.68;2.58;;;22.90;99.90;;;;;;5080347;28;20078;-65
2022/06/11 10:49:46;;;;;;;8.00;2.83;;;23.00;99.90;;;;;;5080746;28;20032;-64
2022/06/11 10:52:46;;;;;;;9.85;3.10;;;22.80;99.90;;;;;;5082150;28;20466;-64
2022/06/11 10:55:34;;;;;;;7.18;2.67;;;22.50;99.90;;;;;;5086613;28;20020;-66
2022/06/11 10:58:14;;;;;;;5.13;2.63;;;22.30;99.90;;;;;;5084447;28;20028;-65
2022/06/11 11:00:50;;;;;;;6.82;2.42;;;22.40;99.90;;;;;;5086689;28;20031;-64
2022/06/11 11:03:50;;;;;;;7.28;2.40;;;22.50;99.90;;;;;;5083830;28;20134;-66
2022/06/11 11:06:34;;;;;;;8.05;2.83;;;22.70;99.90;;;;;;5079735;28;20047;-65
2022/06/11 11:09:07;;;;;;;46.30;35.35;;;23.10;99.90;;;;;;5083389;28;20028;-65
2022/06/11 11:11:39;;;;;;;;;;;23.20;99.90;;;;;;5080870;28;20111;-64
2022/06/11 11:14:20;;;;;;;5.10;2.20;;;23.10;99.90;;;;;;5079762;28;19961;-64
2022/06/11 11:16:51;;;;;;;5.60;2.17;;;22.90;99.90;;;;;;5080104;28;20051;-64
2022/06/11 11:19:21;;;;;;;8.65;2.55;;;23.10;99.90;;;;;;5085550;28;20490;-64
2022/06/11 11:21:52;;;;;;;7.63;2.40;;;23.60;99.90;;;;;;5087025;28;20028;-64
2022/06/11 11:24:27;;;;;;;7.70;2.45;;;23.60;99.90;;;;;;5081529;28;20778;-63
2022/06/11 11:27:06;;;;;;;5.88;2.25;;;23.40;99.90;;;;;;5097441;28;20071;-64
2022/06/11 11:29:47;;;;;;;8.65;2.30;;;23.40;99.90;;;;;;5081305;28;20036;-64
2022/06/11 11:32:34;;;;;;;5.18;1.80;;;23.50;99.90;;;;;;5085593;28;20070;-64
2022/06/11 11:35:24;;;;;;;3.15;1.45;;;23.50;99.90;;;;;;5083919;28;20415;-64
2022/06/11 11:38:13;;;;;;;6.32;1.60;;;23.60;99.90;;;;;;5085009;28;20559;-63
2022/06/11 11:40:57;;;;;;;4.60;1.70;;;23.60;99.90;;;;;;5078823;28;20016;-63
2022/06/11 11:43:24;;;;;;;8.65;1.70;;;23.60;99.90;;;;;;5078825;28;20048;-64
2022/06/11 11:46:02;;;;;;;9.30;1.60;;;23.60;99.90;;;;;;5085524;28;20103;-64
2022/06/11 11:48:30;;;;;;;5.22;1.70;;;23.90;99.90;;;;;;5084013;28;20105;-63
2022/06/11 11:51:19;;;;;;;4.55;1.45;;;22.80;99.90;;;;;;5087799;28;20032;-64
2022/06/11 11:53:49;;;;;;;3.25;1.30;;;23.50;99.90;;;;;;5084318;28;20040;-64
2022/06/11 11:56:27;;;;;;;6.43;1.50;;;;;;;;;;5082800;28;20036;-64
2022/06/11 11:58:59;;;;;;;3.17;1.35;;;24.00;99.90;;;;;;5082522;28;20085;-64
2022/06/11 12:01:27;;;;;;;5.60;1.35;;;23.50;99.90;;;;;;5082716;28;20258;-63
2022/06/11 12:04:25;;;;;;;5.43;1.67;;;23.80;99.90;;;;;;5091796;28;20023;-64
2022/06/11 12:06:56;;;;;;;6.95;1.42;;;23.80;99.90;;;;;;5088068;28;20080;-63
2022/06/11 12:09:30;;;;;;;4.72;1.30;;;23.80;99.90;;;;;;5083258;28;20032;-63
2022/06/11 12:12:07;;;;;;;5.78;1.70;;;23.70;99.90;;;;;;5087945;28;20130;-64
2022/06/11 12:14:38;;;;;;;6.95;2.13;;;23.30;99.90;;;;;;5087765;28;20043;-64
2022/06/11 12:17:37;;;;;;;6.63;1.67;;;23.30;99.90;;;;;;5081467;28;20073;-64
2022/06/11 12:20:11;;;;;;;4.20;1.30;;;23.30;99.90;;;;;;5092559;28;20056;-64
2022/06/11 12:22:47;;;;;;;4.85;1.42;;;23.30;99.90;;;;;;5086882;28;20027;-65
2022/06/11 12:25:47;;;;;;;5.57;1.63;;;23.30;99.90;;;;;;5086501;28;20028;-64
2022/06/11 12:28:15;;;;;;;7.70;1.67;;;23.30;99.90;;;;;;5080609;28;21302;-64
2022/06/11 12:30:42;;;;;;;4.95;1.42;;;23.40;99.90;;;;;;5082217;28;20067;-64
2022/06/11 12:33:14;;;;;;;4.93;1.58;;;23.20;99.90;;;;;;5079593;28;20039;-64
2022/06/11 12:36:11;;;;;;;6.40;1.42;;;23.20;99.90;;;;;;5083577;28;20024;-64
2022/06/11 12:39:05;;;;;;;5.85;2.00;;;23.50;99.90;;;;;;5090536;28;20023;-63
2022/06/11 12:41:58;;;;;;;4.03;1.55;;;;;;;;;;5091403;28;20028;-64
2022/06/11 12:44:49;;;;;;;4.55;1.40;;;22.90;99.90;;;;;;5077018;28;20086;-63
2022/06/11 12:47:40;;;;;;;5.43;1.35;;;23.60;99.90;;;;;;5088618;28;20561;-64
2022/06/11 12:50:34;;;;;;;5.82;1.40;;;23.60;99.90;;;;;;5083270;28;20039;-64
2022/06/11 12:53:16;;;;;;;6.60;1.35;;;23.40;99.90;;;;;;5085507;28;20432;-64
2022/06/11 12:55:42;;;;;;;6.90;1.35;;;;;;;;;;5083759;28;20025;-64
2022/06/11 12:58:34;;;;;;;4.35;1.50;;;23.70;99.90;;;;;;5084430;28;20064;-65
2022/06/11 13:01:27;;;;;;;5.50;1.83;;;23.70;99.90;;;;;;5089536;28;20259;-65
2022/06/11 13:04:04;;;;;;;5.85;1.25;;;;;;;;;;5082803;28;20466;-64
2022/06/11 13:06:51;;;;;;;3.40;1.30;;;23.40;99.90;;;;;;5082282;28;20028;-64
2022/06/11 13:09:30;;;;;;;7.53;1.60;;;23.20;99.90;;;;;;5085867;28;20483;-65
2022/06/11 13:12:19;;;;;;;3.88;1.52;;;23.20;99.90;;;;;;5084192;27;20028;-64
2022/06/11 13:15:08;;;;;;;4.93;1.85;;;23.20;99.90;;;;;;5080857;28;20101;-64
2022/06/11 13:18:12;;;;;;;3.38;1.20;;;23.90;99.90;;;;;;5081537;28;20507;-64
2022/06/11 13:20:55;;;;;;;3.65;1.38;;;23.60;99.90;;;;;;5077700;28;20058;-64
2022/06/11 13:23:49;;;;;;;7.75;1.60;;;23.60;99.90;;;;;;5079912;28;20028;-64
2022/06/11 13:26:23;;;;;;;4.05;1.40;;;23.70;99.90;;;;;;5079453;28;20038;-64
2022/06/11 13:29:16;;;;;;;4.38;1.30;;;23.60;99.90;;;;;;5087413;28;20738;-64
2022/06/11 13:31:48;;;;;;;;;;;23.80;99.90;;;;;;5077134;28;20016;-64
2022/06/11 13:34:46;;;;;;;4.35;1.27;;;23.90;99.90;;;;;;5081413;28;19905;-64
2022/06/11 13:37:24;;;;;;;5.55;1.63;;;23.70;99.90;;;;;;5083320;28;20028;-65